Terminal Aerodrome Forecast
Issued by NWS

Home | Current Version | Previous Version | Text Only | Print | Product List | Glossary On
Versions: 1 2 3 4 5 6 7 8 9 10 11 12
000
FTUS45 KABQ 281728
TAFROW
TAF
KROW 281728Z 2818/2918 36006KT P6SM BKN120
     FM282100 01007KT P6SM VCTS SCT070CB BKN150
      TEMPO 2821/2824 VRB20G30KT -TSRA BKN070CB
     FM290100 01006KT P6SM VCSH BKN100
     FM290400 02007KT P6SM BKN070
     FM290700 35006KT P6SM SCT070=

USA.gov is the U.S. government's official web portal to all federal, state and local government web resources and services.